sensor_id;sensor_type;location;lat;lon;timestamp;pressure;altitude;pressure_sealevel;temperature;humidity
82222;BME280;71818;52.352;10.912;2023-07-31T00:00:06;99765.16;;;14.69;85.00
82222;BME280;71818;52.352;10.912;2023-07-31T00:02:34;99764.47;;;14.67;85.50
82222;BME280;71818;52.352;10.912;2023-07-31T00:04:59;99756.63;;;14.65;85.67
82222;BME280;71818;52.352;10.912;2023-07-31T00:07:25;99753.25;;;14.63;86.07
82222;BME280;71818;52.352;10.912;2023-07-31T00:09:50;99746.41;;;14.61;86.05
82222;BME280;71818;52.352;10.912;2023-07-31T00:12:16;99736.72;;;14.60;86.34
82222;BME280;71818;52.352;10.912;2023-07-31T00:14:41;99743.03;;;14.59;86.38
82222;BME280;71818;52.352;10.912;2023-07-31T00:17:07;99734.34;;;14.57;86.41
82222;BME280;71818;52.352;10.912;2023-07-31T00:19:32;99741.66;;;14.55;86.66
82222;BME280;71818;52.352;10.912;2023-07-31T00:21:57;99740.28;;;14.51;87.22
82222;BME280;71818;52.352;10.912;2023-07-31T00:24:23;99738.75;;;14.48;87.33
82222;BME280;71818;52.352;10.912;2023-07-31T00:26:48;99738.09;;;14.46;87.15
82222;BME280;71818;52.352;10.912;2023-07-31T00:29:13;99741.75;;;14.45;87.39
82222;BME280;71818;52.352;10.912;2023-07-31T00:31:39;99727.69;;;14.43;87.70
82222;BME280;71818;52.352;10.912;2023-07-31T00:34:04;99720.81;;;14.41;87.55
82222;BME280;71818;52.352;10.912;2023-07-31T00:36:29;99721.09;;;14.38;87.73
82222;BME280;71818;52.352;10.912;2023-07-31T00:38:55;99716.44;;;14.40;87.66
82222;BME280;71818;52.352;10.912;2023-07-31T00:41:20;99707.06;;;14.35;87.89
82222;BME280;71818;52.352;10.912;2023-07-31T00:43:46;99709.03;;;14.33;87.65
82222;BME280;71818;52.352;10.912;2023-07-31T00:46:11;99702.34;;;14.29;88.06
82222;BME280;71818;52.352;10.912;2023-07-31T00:48:37;99706.84;;;14.29;88.33
82222;BME280;71818;52.352;10.912;2023-07-31T00:51:02;99693.97;;;14.24;88.38
82222;BME280;71818;52.352;10.912;2023-07-31T00:53:28;99699.56;;;14.21;88.62
82222;BME280;71818;52.352;10.912;2023-07-31T00:55:53;99694.53;;;14.18;88.68
82222;BME280;71818;52.352;10.912;2023-07-31T00:58:19;99700.88;;;14.17;88.91
82222;BME280;71818;52.352;10.912;2023-07-31T01:00:44;99696.00;;;14.13;88.59
82222;BME280;71818;52.352;10.912;2023-07-31T01:03:10;99696.16;;;14.11;89.26
82222;BME280;71818;52.352;10.912;2023-07-31T01:05:58;99701.78;;;14.08;89.21
82222;BME280;71818;52.352;10.912;2023-07-31T01:08:40;99698.00;;;14.11;89.35
82222;BME280;71818;52.352;10.912;2023-07-31T01:11:19;99698.38;;;14.16;89.15
82222;BME280;71818;52.352;10.912;2023-07-31T01:13:45;99696.22;;;14.19;88.71
82222;BME280;71818;52.352;10.912;2023-07-31T01:16:11;99672.03;;;14.21;88.87
82222;BME280;71818;52.352;10.912;2023-07-31T01:18:36;99667.69;;;14.20;89.39
82222;BME280;71818;52.352;10.912;2023-07-31T01:26:34;99665.03;;;14.02;90.65
82222;BME280;71818;52.352;10.912;2023-07-31T01:29:06;99663.34;;;14.01;90.71
82222;BME280;71818;52.352;10.912;2023-07-31T01:31:32;99657.47;;;13.97;90.77
82222;BME280;71818;52.352;10.912;2023-07-31T01:34:00;99647.22;;;13.93;91.33
82222;BME280;71818;52.352;10.912;2023-07-31T01:36:26;99638.38;;;13.92;91.35
82222;BME280;71818;52.352;10.912;2023-07-31T01:38:52;99638.53;;;13.91;91.20
82222;BME280;71818;52.352;10.912;2023-07-31T01:41:18;99629.84;;;13.89;91.18
82222;BME280;71818;52.352;10.912;2023-07-31T01:43:45;99622.53;;;13.91;90.80
82222;BME280;71818;52.352;10.912;2023-07-31T01:46:11;99629.38;;;13.93;90.73
82222;BME280;71818;52.352;10.912;2023-07-31T01:48:36;99619.97;;;13.99;90.35
82222;BME280;71818;52.352;10.912;2023-07-31T01:51:02;99616.28;;;14.00;90.09
82222;BME280;71818;52.352;10.912;2023-07-31T01:53:28;99611.47;;;14.03;89.99
82222;BME280;71818;52.352;10.912;2023-07-31T01:55:54;99610.66;;;14.03;89.67
82222;BME280;71818;52.352;10.912;2023-07-31T01:58:19;99611.31;;;14.05;89.77
82222;BME280;71818;52.352;10.912;2023-07-31T02:00:45;99610.34;;;14.06;90.15
82222;BME280;71818;52.352;10.912;2023-07-31T02:03:11;99608.22;;;14.10;89.58
82222;BME280;71818;52.352;10.912;2023-07-31T02:05:37;99603.63;;;14.20;88.84
82222;BME280;71818;52.352;10.912;2023-07-31T02:08:08;99603.47;;;14.21;88.76
82222;BME280;71818;52.352;10.912;2023-07-31T02:10:33;99601.78;;;14.20;89.01
82222;BME280;71818;52.352;10.912;2023-07-31T02:12:59;99597.75;;;14.16;88.83
82222;BME280;71818;52.352;10.912;2023-07-31T02:15:24;99601.56;;;14.14;89.49
82222;BME280;71818;52.352;10.912;2023-07-31T02:17:49;99594.09;;;14.17;89.54
82222;BME280;71818;52.352;10.912;2023-07-31T02:20:15;99592.25;;;14.18;89.38
82222;BME280;71818;52.352;10.912;2023-07-31T02:22:40;99593.56;;;14.14;89.63
82222;BME280;71818;52.352;10.912;2023-07-31T02:25:06;99587.22;;;14.15;89.36
82222;BME280;71818;52.352;10.912;2023-07-31T02:27:32;99588.38;;;14.12;89.67
82222;BME280;71818;52.352;10.912;2023-07-31T02:29:57;99583.34;;;14.09;89.90
82222;BME280;71818;52.352;10.912;2023-07-31T02:32:24;99575.47;;;14.07;90.11
82222;BME280;71818;52.352;10.912;2023-07-31T02:34:49;99572.13;;;14.05;90.23
82222;BME280;71818;52.352;10.912;2023-07-31T02:37:15;99571.28;;;14.05;90.42
82222;BME280;71818;52.352;10.912;2023-07-31T02:39:40;99570.59;;;14.03;90.29
82222;BME280;71818;52.352;10.912;2023-07-31T02:42:06;99579.97;;;14.07;90.33
82222;BME280;71818;52.352;10.912;2023-07-31T02:44:31;99570.59;;;14.03;90.11
82222;BME280;71818;52.352;10.912;2023-07-31T02:46:56;99573.28;;;14.03;90.43
82222;BME280;71818;52.352;10.912;2023-07-31T02:49:22;99580.13;;;14.05;90.38
82222;BME280;71818;52.352;10.912;2023-07-31T02:51:47;99569.31;;;14.07;90.33
82222;BME280;71818;52.352;10.912;2023-07-31T02:54:12;99572.81;;;14.07;90.51
82222;BME280;71818;52.352;10.912;2023-07-31T02:56:38;99563.69;;;14.10;90.34
82222;BME280;71818;52.352;10.912;2023-07-31T02:59:03;99566.19;;;14.12;90.33
82222;BME280;71818;52.352;10.912;2023-07-31T03:01:28;99557.50;;;14.10;90.52
82222;BME280;71818;52.352;10.912;2023-07-31T03:03:54;99557.50;;;14.10;91.19
82222;BME280;71818;52.352;10.912;2023-07-31T03:06:19;99559.47;;;14.07;91.30
82222;BME280;71818;52.352;10.912;2023-07-31T03:08:45;99556.94;;;14.06;91.65
82222;BME280;71818;52.352;10.912;2023-07-31T03:11:10;99560.69;;;14.13;91.20
82222;BME280;71818;52.352;10.912;2023-07-31T03:13:35;99557.34;;;14.11;91.39
82222;BME280;71818;52.352;10.912;2023-07-31T03:16:01;99548.66;;;14.09;91.68
82222;BME280;71818;52.352;10.912;2023-07-31T03:18:26;99550.16;;;14.12;91.55
82222;BME280;71818;52.352;10.912;2023-07-31T03:20:51;99544.84;;;14.12;91.82
82222;BME280;71818;52.352;10.912;2023-07-31T03:23:17;99544.28;;;14.08;92.21
82222;BME280;71818;52.352;10.912;2023-07-31T03:25:58;99543.88;;;14.21;92.28
82222;BME280;71818;52.352;10.912;2023-07-31T03:28:24;99544.50;;;14.15;92.17
82222;BME280;71818;52.352;10.912;2023-07-31T03:30:49;99543.69;;;14.14;92.02
82222;BME280;71818;52.352;10.912;2023-07-31T03:33:15;99540.84;;;14.16;92.40
82222;BME280;71818;52.352;10.912;2023-07-31T03:35:40;99540.31;;;14.12;92.51
82222;BME280;71818;52.352;10.912;2023-07-31T03:38:05;99543.00;;;14.12;92.42
82222;BME280;71818;52.352;10.912;2023-07-31T03:40:31;99547.50;;;14.12;92.62
82222;BME280;71818;52.352;10.912;2023-07-31T03:42:56;99552.06;;;14.19;92.35
82222;BME280;71818;52.352;10.912;2023-07-31T03:45:21;99550.53;;;14.17;92.72
82222;BME280;71818;52.352;10.912;2023-07-31T03:47:47;99543.53;;;14.16;92.49
82222;BME280;71818;52.352;10.912;2023-07-31T03:50:12;99548.69;;;14.17;92.95
82222;BME280;71818;52.352;10.912;2023-07-31T03:52:37;99550.84;;;14.14;92.95
82222;BME280;71818;52.352;10.912;2023-07-31T03:55:03;99557.88;;;14.15;93.16
82222;BME280;71818;52.352;10.912;2023-07-31T03:57:28;99549.69;;;14.16;92.78
82222;BME280;71818;52.352;10.912;2023-07-31T03:59:54;99552.88;;;14.20;93.12
82222;BME280;71818;52.352;10.912;2023-07-31T04:02:19;99562.72;;;14.19;93.23
82222;BME280;71818;52.352;10.912;2023-07-31T04:04:44;99556.72;;;14.17;93.02
82222;BME280;71818;52.352;10.912;2023-07-31T04:07:10;99556.72;;;14.17;92.89
82222;BME280;71818;52.352;10.912;2023-07-31T04:09:35;99555.03;;;14.16;93.06
82222;BME280;71818;52.352;10.912;2023-07-31T04:12:00;99562.06;;;14.17;93.18
82222;BME280;71818;52.352;10.912;2023-07-31T04:14:26;99566.72;;;14.15;93.39
82222;BME280;71818;52.352;10.912;2023-07-31T04:16:51;99555.19;;;14.15;93.51
82222;BME280;71818;52.352;10.912;2023-07-31T04:19:17;99556.03;;;14.15;93.35
82222;BME280;71818;52.352;10.912;2023-07-31T04:21:42;99553.38;;;14.15;93.76
82222;BME280;71818;52.352;10.912;2023-07-31T04:24:08;99554.03;;;14.17;93.87
82222;BME280;71818;52.352;10.912;2023-07-31T04:26:34;99553.19;;;14.17;93.79
82222;BME280;71818;52.352;10.912;2023-07-31T04:28:59;99553.38;;;14.15;93.80
82222;BME280;71818;52.352;10.912;2023-07-31T04:31:24;99551.53;;;14.16;93.88
82222;BME280;71818;52.352;10.912;2023-07-31T04:33:50;99553.19;;;14.17;94.15
82222;BME280;71818;52.352;10.912;2023-07-31T04:36:15;99552.38;;;14.16;94.28
82222;BME280;71818;52.352;10.912;2023-07-31T04:38:40;99550.69;;;14.15;94.47
82222;BME280;71818;52.352;10.912;2023-07-31T04:41:06;99546.03;;;14.17;94.37
82222;BME280;71818;52.352;10.912;2023-07-31T04:43:31;99547.88;;;14.17;94.42
82222;BME280;71818;52.352;10.912;2023-07-31T04:45:57;99548.03;;;14.15;94.78
82222;BME280;71818;52.352;10.912;2023-07-31T04:48:23;99548.69;;;14.17;94.77
82222;BME280;71818;52.352;10.912;2023-07-31T04:50:48;99546.03;;;14.17;94.87
82222;BME280;71818;52.352;10.912;2023-07-31T04:53:14;99545.88;;;14.19;94.90
82222;BME280;71818;52.352;10.912;2023-07-31T04:55:39;99547.72;;;14.18;94.91
82222;BME280;71818;52.352;10.912;2023-07-31T04:58:05;99542.38;;;14.18;94.91
82222;BME280;71818;52.352;10.912;2023-07-31T05:00:30;99544.72;;;14.21;94.70
82222;BME280;71818;52.352;10.912;2023-07-31T05:02:56;99545.56;;;14.22;95.07
82222;BME280;71818;52.352;10.912;2023-07-31T05:05:21;99541.06;;;14.22;95.20
82222;BME280;71818;52.352;10.912;2023-07-31T05:07:46;99552.56;;;14.23;94.93
82222;BME280;71818;52.352;10.912;2023-07-31T05:10:12;99548.78;;;14.25;94.87
82222;BME280;71818;52.352;10.912;2023-07-31T05:12:37;99540.06;;;14.23;94.78
82222;BME280;71818;52.352;10.912;2023-07-31T05:15:03;99543.44;;;14.25;94.82
82222;BME280;71818;52.352;10.912;2023-07-31T05:17:28;99541.28;;;14.29;95.00
82222;BME280;71818;52.352;10.912;2023-07-31T05:19:54;99545.63;;;14.30;94.79
82222;BME280;71818;52.352;10.912;2023-07-31T05:22:19;99548.13;;;14.31;94.63
82222;BME280;71818;52.352;10.912;2023-07-31T05:24:44;99549.47;;;14.27;94.65
82222;BME280;71818;52.352;10.912;2023-07-31T05:27:10;99537.25;;;14.25;94.67
82222;BME280;71818;52.352;10.912;2023-07-31T05:29:35;99538.84;;;14.18;94.68
82222;BME280;71818;52.352;10.912;2023-07-31T05:32:01;99539.69;;;14.18;94.74
82222;BME280;71818;52.352;10.912;2023-07-31T05:34:26;99545.72;;;14.20;94.68
82222;BME280;71818;52.352;10.912;2023-07-31T05:36:52;99547.34;;;14.13;94.54
82222;BME280;71818;52.352;10.912;2023-07-31T05:39:17;99547.34;;;14.13;94.80
82222;BME280;71818;52.352;10.912;2023-07-31T05:41:44;99548.66;;;14.09;94.73
82222;BME280;71818;52.352;10.912;2023-07-31T05:44:10;99548.66;;;13.91;94.66
82222;BME280;71818;52.352;10.912;2023-07-31T05:46:35;99551.16;;;13.93;94.14
82222;BME280;71818;52.352;10.912;2023-07-31T05:49:01;99549.91;;;13.79;93.74
82222;BME280;71818;52.352;10.912;2023-07-31T05:51:26;99541.97;;;13.69;93.54
82222;BME280;71818;52.352;10.912;2023-07-31T05:53:52;99538.22;;;13.80;93.46
82222;BME280;71818;52.352;10.912;2023-07-31T05:56:18;99539.66;;;13.57;93.80
82222;BME280;71818;52.352;10.912;2023-07-31T05:58:43;99542.06;;;13.32;93.88
82222;BME280;71818;52.352;10.912;2023-07-31T06:01:08;99533.16;;;13.24;93.85
82222;BME280;71818;52.352;10.912;2023-07-31T06:03:34;99532.00;;;13.26;94.07
82222;BME280;71818;52.352;10.912;2023-07-31T06:05:59;99529.97;;;13.20;94.76
82222;BME280;71818;52.352;10.912;2023-07-31T06:08:25;99527.38;;;13.28;94.88
82222;BME280;71818;52.352;10.912;2023-07-31T06:10:50;99521.81;;;13.39;95.22
82222;BME280;71818;52.352;10.912;2023-07-31T06:13:15;99521.00;;;13.39;95.08
82222;BME280;71818;52.352;10.912;2023-07-31T06:15:41;99523.59;;;13.49;95.27
82222;BME280;71818;52.352;10.912;2023-07-31T06:18:06;99521.69;;;13.41;95.03
82222;BME280;71818;52.352;10.912;2023-07-31T06:20:36;99516.88;;;13.44;94.58
82222;BME280;71818;52.352;10.912;2023-07-31T06:23:01;99513.31;;;13.36;94.94
82222;BME280;71818;52.352;10.912;2023-07-31T06:25:27;99518.16;;;13.40;95.13
82222;BME280;71818;52.352;10.912;2023-07-31T06:27:52;99512.84;;;13.40;94.97
82222;BME280;71818;52.352;10.912;2023-07-31T06:30:18;99514.34;;;13.43;95.05
82222;BME280;71818;52.352;10.912;2023-07-31T06:32:43;99511.94;;;13.50;94.91
82222;BME280;71818;52.352;10.912;2023-07-31T06:35:08;99513.59;;;13.68;94.98
82222;BME280;71818;52.352;10.912;2023-07-31T06:37:34;99501.56;;;13.82;94.79
82222;BME280;71818;52.352;10.912;2023-07-31T06:39:59;99508.69;;;13.99;94.36
82222;BME280;71818;52.352;10.912;2023-07-31T06:42:24;99504.63;;;14.13;93.74
82222;BME280;71818;52.352;10.912;2023-07-31T06:44:50;99491.63;;;14.18;93.40
82222;BME280;71818;52.352;10.912;2023-07-31T06:47:15;99497.56;;;14.30;93.22
82222;BME280;71818;52.352;10.912;2023-07-31T06:49:41;99488.06;;;14.35;93.05
82222;BME280;71818;52.352;10.912;2023-07-31T06:52:06;99502.03;;;14.47;92.87
82222;BME280;71818;52.352;10.912;2023-07-31T06:54:32;99504.59;;;14.57;93.27
82222;BME280;71818;52.352;10.912;2023-07-31T06:56:57;99500.00;;;14.75;93.04
82222;BME280;71818;52.352;10.912;2023-07-31T06:59:23;99489.59;;;14.64;92.63
82222;BME280;71818;52.352;10.912;2023-07-31T07:01:48;99502.31;;;14.70;93.24
82222;BME280;71818;52.352;10.912;2023-07-31T07:04:13;99500.41;;;14.88;93.24
82222;BME280;71818;52.352;10.912;2023-07-31T07:06:39;99492.44;;;15.13;92.75
82222;BME280;71818;52.352;10.912;2023-07-31T07:09:04;99489.31;;;15.17;92.42
82222;BME280;71818;52.352;10.912;2023-07-31T07:11:30;99483.47;;;15.30;92.36
82222;BME280;71818;52.352;10.912;2023-07-31T07:13:55;99486.50;;;15.35;92.63
82222;BME280;71818;52.352;10.912;2023-07-31T07:16:20;99486.66;;;15.42;92.35
82222;BME280;71818;52.352;10.912;2023-07-31T07:18:46;99488.00;;;15.46;92.49
82222;BME280;71818;52.352;10.912;2023-07-31T07:21:11;99487.38;;;15.60;92.79
82222;BME280;71818;52.352;10.912;2023-07-31T07:23:41;99484.84;;;15.59;92.22
82222;BME280;71818;52.352;10.912;2023-07-31T07:26:06;99484.50;;;15.53;92.54
82222;BME280;71818;52.352;10.912;2023-07-31T07:28:31;99482.16;;;15.59;92.80
82222;BME280;71818;52.352;10.912;2023-07-31T07:30:57;99482.34;;;15.57;92.61
82222;BME280;71818;52.352;10.912;2023-07-31T07:33:23;99481.50;;;15.48;92.76
82222;BME280;71818;52.352;10.912;2023-07-31T07:35:48;99483.81;;;15.35;92.86
82222;BME280;71818;52.352;10.912;2023-07-31T07:38:14;99483.63;;;15.29;92.65
82222;BME280;71818;52.352;10.912;2023-07-31T07:40:44;99484.28;;;15.22;92.69
82222;BME280;71818;52.352;10.912;2023-07-31T07:43:11;99481.59;;;15.14;93.25
82222;BME280;71818;52.352;10.912;2023-07-31T07:45:37;99493.44;;;15.12;93.10
82222;BME280;71818;52.352;10.912;2023-07-31T07:48:03;99481.75;;;15.05;93.14
82222;BME280;71818;52.352;10.912;2023-07-31T07:50:28;99482.22;;;15.00;93.40
82222;BME280;71818;52.352;10.912;2023-07-31T07:52:54;99481.41;;;15.08;93.69
82222;BME280;71818;52.352;10.912;2023-07-31T07:55:19;99484.09;;;15.08;93.71
82222;BME280;71818;52.352;10.912;2023-07-31T07:57:44;99469.22;;;15.05;93.61
82222;BME280;71818;52.352;10.912;2023-07-31T08:00:11;99470.72;;;15.08;93.78
82222;BME280;71818;52.352;10.912;2023-07-31T08:02:36;99472.41;;;15.09;94.31
82222;BME280;71818;52.352;10.912;2023-07-31T08:05:02;99474.06;;;15.10;93.95
82222;BME280;71818;52.352;10.912;2023-07-31T08:07:27;99470.72;;;15.08;93.84
82222;BME280;71818;52.352;10.912;2023-07-31T08:09:52;99474.41;;;15.15;93.77
82222;BME280;71818;52.352;10.912;2023-07-31T08:12:18;99469.59;;;15.18;93.66
82222;BME280;71818;52.352;10.912;2023-07-31T08:14:44;99472.75;;;15.22;93.30
82222;BME280;71818;52.352;10.912;2023-07-31T08:17:09;99476.97;;;15.33;93.31
82222;BME280;71818;52.352;10.912;2023-07-31T08:19:35;99473.13;;;15.35;92.78
82222;BME280;71818;52.352;10.912;2023-07-31T08:22:00;99479.00;;;15.55;92.75
82222;BME280;71818;52.352;10.912;2023-07-31T08:24:25;99467.81;;;15.92;92.32
82222;BME280;71818;52.352;10.912;2023-07-31T08:26:51;99475.69;;;16.10;91.40
82222;BME280;71818;52.352;10.912;2023-07-31T08:29:16;99468.31;;;16.12;91.14
82222;BME280;71818;52.352;10.912;2023-07-31T08:31:41;99473.66;;;16.12;90.10
82222;BME280;71818;52.352;10.912;2023-07-31T08:34:07;99471.16;;;16.10;89.72
82222;BME280;71818;52.352;10.912;2023-07-31T08:36:32;99477.13;;;16.37;89.23
82222;BME280;71818;52.352;10.912;2023-07-31T08:38:57;99476.44;;;16.35;88.60
82222;BME280;71818;52.352;10.912;2023-07-31T08:41:23;99475.91;;;16.56;89.21
82222;BME280;71818;52.352;10.912;2023-07-31T08:43:49;99473.38;;;16.70;88.03
82222;BME280;71818;52.352;10.912;2023-07-31T08:46:15;99476.03;;;16.62;86.80
82222;BME280;71818;52.352;10.912;2023-07-31T08:48:42;99474.03;;;16.72;87.18
82222;BME280;71818;52.352;10.912;2023-07-31T08:51:09;99471.56;;;16.55;87.00
82222;BME280;71818;52.352;10.912;2023-07-31T08:53:35;99474.97;;;16.32;86.93
82222;BME280;71818;52.352;10.912;2023-07-31T08:56:00;99479.47;;;16.32;87.44
82222;BME280;71818;52.352;10.912;2023-07-31T08:58:31;99480.97;;;16.34;87.02
82222;BME280;71818;52.352;10.912;2023-07-31T09:00:57;99469.72;;;16.55;86.18
82222;BME280;71818;52.352;10.912;2023-07-31T09:03:25;99470.50;;;16.64;85.97
82222;BME280;71818;52.352;10.912;2023-07-31T09:05:51;99475.38;;;16.60;86.33
82222;BME280;71818;52.352;10.912;2023-07-31T09:08:20;99478.00;;;16.85;85.21
82222;BME280;71818;52.352;10.912;2023-07-31T09:10:47;99477.75;;;16.47;85.42
82222;BME280;71818;52.352;10.912;2023-07-31T09:13:16;99480.09;;;16.58;85.17
82222;BME280;71818;52.352;10.912;2023-07-31T09:15:45;99482.47;;;16.45;85.22
82222;BME280;71818;52.352;10.912;2023-07-31T09:18:11;99477.31;;;16.27;85.20
82222;BME280;71818;52.352;10.912;2023-07-31T09:20:37;99469.63;;;16.24;85.86
82222;BME280;71818;52.352;10.912;2023-07-31T09:23:11;99473.16;;;16.17;86.01
82222;BME280;71818;52.352;10.912;2023-07-31T09:25:37;99466.94;;;16.08;85.57
82222;BME280;71818;52.352;10.912;2023-07-31T09:28:08;99468.44;;;16.19;85.39
82222;BME280;71818;52.352;10.912;2023-07-31T09:30:46;99462.47;;;16.00;86.22
82222;BME280;71818;52.352;10.912;2023-07-31T09:33:12;99463.78;;;16.04;86.82
82222;BME280;71818;52.352;10.912;2023-07-31T09:35:37;99459.13;;;15.98;85.87
82222;BME280;71818;52.352;10.912;2023-07-31T09:38:06;99463.47;;;15.99;86.39
82222;BME280;71818;52.352;10.912;2023-07-31T09:40:34;99455.13;;;15.94;86.00
82222;BME280;71818;52.352;10.912;2023-07-31T09:43:02;99456.44;;;15.90;86.48
82222;BME280;71818;52.352;10.912;2023-07-31T09:45:28;99455.94;;;16.03;86.95
82222;BME280;71818;52.352;10.912;2023-07-31T09:47:54;99446.31;;;16.41;86.81
82222;BME280;71818;52.352;10.912;2023-07-31T09:50:21;99443.53;;;16.73;85.07
82222;BME280;71818;52.352;10.912;2023-07-31T09:52:47;99435.06;;;16.93;85.31
82222;BME280;71818;52.352;10.912;2023-07-31T09:55:12;99440.81;;;16.82;84.60
82222;BME280;71818;52.352;10.912;2023-07-31T09:57:45;99442.88;;;16.63;85.66
82222;BME280;71818;52.352;10.912;2023-07-31T10:00:12;99447.16;;;16.41;85.98
82222;BME280;71818;52.352;10.912;2023-07-31T10:02:38;99445.34;;;16.26;85.99
82222;BME280;71818;52.352;10.912;2023-07-31T10:05:05;99445.53;;;16.24;86.94
82222;BME280;71818;52.352;10.912;2023-07-31T10:07:36;99450.56;;;16.11;86.92
82222;BME280;71818;52.352;10.912;2023-07-31T10:10:04;99447.91;;;16.11;86.75
82222;BME280;71818;52.352;10.912;2023-07-31T10:12:32;99441.44;;;16.36;86.36
82222;BME280;71818;52.352;10.912;2023-07-31T10:14:59;99446.31;;;16.33;86.89
82222;BME280;71818;52.352;10.912;2023-07-31T10:17:25;99453.69;;;16.39;87.27
82222;BME280;71818;52.352;10.912;2023-07-31T10:19:51;99452.03;;;16.22;87.95
82222;BME280;71818;52.352;10.912;2023-07-31T10:22:16;99446.53;;;16.07;88.72
82222;BME280;71818;52.352;10.912;2023-07-31T10:24:45;99449.91;;;16.01;89.00
82222;BME280;71818;52.352;10.912;2023-07-31T10:27:10;99450.06;;;15.91;89.35
82222;BME280;71818;52.352;10.912;2023-07-31T10:29:38;99442.75;;;15.93;89.86
82222;BME280;71818;52.352;10.912;2023-07-31T10:32:05;99449.06;;;16.00;89.88
82222;BME280;71818;52.352;10.912;2023-07-31T10:34:34;99445.38;;;16.09;89.55
82222;BME280;71818;52.352;10.912;2023-07-31T10:42:49;99432.34;;;15.90;90.58
82222;BME280;71818;52.352;10.912;2023-07-31T10:45:38;99431.47;;;16.06;90.85
82222;BME280;71818;52.352;10.912;2023-07-31T10:48:15;99436.66;;;16.24;91.15
82222;BME280;71818;52.352;10.912;2023-07-31T10:50:48;99423.94;;;16.26;91.31
82222;BME280;71818;52.352;10.912;2023-07-31T10:53:31;99417.44;;;16.59;90.48
82222;BME280;71818;52.352;10.912;2023-07-31T10:56:02;99409.44;;;17.13;88.78
82222;BME280;71818;52.352;10.912;2023-07-31T10:58:28;99402.06;;;17.38;86.40
82222;BME280;71818;52.352;10.912;2023-07-31T11:00:58;99390.66;;;17.82;84.46
82222;BME280;71818;52.352;10.912;2023-07-31T11:03:51;99382.81;;;18.25;83.59
82222;BME280;71818;52.352;10.912;2023-07-31T11:06:18;99388.72;;;18.35;81.66
82222;BME280;71818;52.352;10.912;2023-07-31T11:08:45;99387.25;;;18.32;80.90
82222;BME280;71818;52.352;10.912;2023-07-31T11:11:12;99377.97;;;18.20;81.57
82222;BME280;71818;52.352;10.912;2023-07-31T11:16:07;99377.63;;;18.08;81.21
82222;BME280;71818;52.352;10.912;2023-07-31T11:18:32;99378.16;;;18.04;81.53
82222;BME280;71818;52.352;10.912;2023-07-31T11:20:58;99379.06;;;17.81;80.36
82222;BME280;71818;52.352;10.912;2023-07-31T11:23:23;99383.56;;;17.66;80.56
82222;BME280;71818;52.352;10.912;2023-07-31T11:25:50;99374.25;;;17.77;80.87
82222;BME280;71818;52.352;10.912;2023-07-31T11:28:17;99377.63;;;17.94;80.49
82222;BME280;71818;52.352;10.912;2023-07-31T11:30:44;99375.28;;;18.05;79.76
82222;BME280;71818;52.352;10.912;2023-07-31T11:33:12;99361.13;;;18.26;78.79
82222;BME280;71818;52.352;10.912;2023-07-31T11:35:46;99359.03;;;18.58;77.89
82222;BME280;71818;52.352;10.912;2023-07-31T11:38:20;99347.72;;;18.77;76.84
82222;BME280;71818;52.352;10.912;2023-07-31T11:40:47;99347.66;;;18.92;75.73
82222;BME280;71818;52.352;10.912;2023-07-31T11:43:13;99342.13;;;18.78;76.72
82222;BME280;71818;52.352;10.912;2023-07-31T11:45:48;99343.50;;;18.89;75.19
82222;BME280;71818;52.352;10.912;2023-07-31T11:48:27;99331.84;;;19.03;75.10
82222;BME280;71818;52.352;10.912;2023-07-31T11:50:54;99331.34;;;18.93;75.33
82222;BME280;71818;52.352;10.912;2023-07-31T11:53:33;99331.38;;;18.78;76.55
82222;BME280;71818;52.352;10.912;2023-07-31T11:56:01;99328.63;;;18.57;76.84
82222;BME280;71818;52.352;10.912;2023-07-31T11:58:33;99322.84;;;18.39;76.03
82222;BME280;71818;52.352;10.912;2023-07-31T12:00:59;99323.69;;;18.25;77.73
82222;BME280;71818;52.352;10.912;2023-07-31T12:03:25;99329.78;;;18.33;77.77
82222;BME280;71818;52.352;10.912;2023-07-31T12:05:53;99319.31;;;18.38;76.27
82222;BME280;71818;52.352;10.912;2023-07-31T12:08:21;99328.44;;;18.23;77.05
82222;BME280;71818;52.352;10.912;2023-07-31T12:10:46;99318.00;;;18.34;76.71
82222;BME280;71818;52.352;10.912;2023-07-31T12:13:20;99319.75;;;18.57;75.43
82222;BME280;71818;52.352;10.912;2023-07-31T12:15:48;99315.75;;;18.67;74.36
82222;BME280;71818;52.352;10.912;2023-07-31T12:18:14;99312.13;;;18.75;74.83
82222;BME280;71818;52.352;10.912;2023-07-31T12:20:44;99314.16;;;18.73;74.36
82222;BME280;71818;52.352;10.912;2023-07-31T12:23:17;99315.25;;;18.78;73.75
82222;BME280;71818;52.352;10.912;2023-07-31T12:25:43;99315.38;;;18.92;73.76
82222;BME280;71818;52.352;10.912;2023-07-31T12:28:09;99318.06;;;18.70;74.14
82222;BME280;71818;52.352;10.912;2023-07-31T12:30:39;99311.38;;;18.51;74.26
82222;BME280;71818;52.352;10.912;2023-07-31T12:33:13;99306.84;;;18.52;73.54
82222;BME280;71818;52.352;10.912;2023-07-31T12:35:45;99305.91;;;18.60;73.54
82222;BME280;71818;52.352;10.912;2023-07-31T12:38:11;99293.50;;;18.59;74.54
82222;BME280;71818;52.352;10.912;2023-07-31T12:40:38;99302.41;;;18.59;74.32
82222;BME280;71818;52.352;10.912;2023-07-31T12:43:04;99300.00;;;18.49;76.71
82222;BME280;71818;52.352;10.912;2023-07-31T12:45:30;99302.34;;;18.38;77.71
82222;BME280;71818;52.352;10.912;2023-07-31T12:47:57;99304.47;;;18.42;78.67
82222;BME280;71818;52.352;10.912;2023-07-31T12:50:22;99306.22;;;18.50;76.95
82222;BME280;71818;52.352;10.912;2023-07-31T12:52:48;99296.03;;;18.81;77.19
82222;BME280;71818;52.352;10.912;2023-07-31T12:55:14;99295.47;;;19.07;76.41
82222;BME280;71818;52.352;10.912;2023-07-31T12:57:40;99295.06;;;19.10;75.56
82222;BME280;71818;52.352;10.912;2023-07-31T13:00:07;99295.66;;;19.06;74.53